Time;durP1;ratioP1;P1;durP2;ratioP2;P2;SDS_P1;SDS_P2;PMS_P1;PMS_P2;Temp;Humidity;BMP_temperature;BMP_pressure;BME280_temperature;BME280_humidity;BME280_pressure;Samples;Min_cycle;Max_cycle;Signal;HPM_P1;HPM_P2
2023/08/31 00:00:53;;;;;;;6.20;4.90;;;;;;;14.60;80.23;100011.25;7394007;19;20025;-66
2023/08/31 00:03:22;;;;;;;5.82;5.00;;;;;;;14.61;80.40;100022.69;7395046;19;20037;-67
2023/08/31 00:05:51;;;;;;;5.75;5.25;;;;;;;14.59;80.67;100020.09;7396632;19;20023;-66
2023/08/31 00:08:22;;;;;;;6.55;5.07;;;;;;;14.59;80.67;100024.53;7394842;19;20014;-67
2023/08/31 00:10:58;;;;;;;5.95;5.03;;;;;;;14.54;80.97;100019.47;7395330;19;20077;-65
2023/08/31 00:13:27;;;;;;;5.15;4.50;;;;;;;14.57;80.84;100029.03;7394270;19;20374;-67
2023/08/31 00:15:59;;;;;;;9.88;5.30;;;;;;;14.57;81.27;100029.03;7394502;19;20010;-66
2023/08/31 00:18:28;;;;;;;5.80;5.30;;;;;;;14.53;81.01;100016.91;7395184;19;20015;-67
2023/08/31 00:20:57;;;;;;;5.65;4.45;;;;;;;14.54;81.31;100024.75;7394324;19;20006;-67
2023/08/31 00:23:28;;;;;;;6.85;5.43;;;;;;;14.54;81.60;100023.91;7395167;19;20030;-66
2023/08/31 00:25:57;;;;;;;5.65;4.93;;;;;;;14.54;81.42;100018.63;7395031;19;20082;-66
2023/08/31 00:28:27;;;;;;;4.85;4.45;;;;;;;14.43;81.60;100004.19;7394428;19;20078;-66
2023/08/31 00:30:55;;;;;;;5.78;5.18;;;;;;;14.54;81.74;100030.03;7395967;19;20017;-67
2023/08/31 00:33:23;;;;;;;8.32;5.43;;;;;;;14.55;81.85;100033.53;7393621;19;20505;-66
2023/08/31 00:35:52;;;;;;;5.80;4.93;;;;;;;14.55;81.87;100041.47;7393853;19;20587;-66
2023/08/31 00:38:20;;;;;;;7.30;4.85;;;;;;;14.54;82.00;100045.03;7394049;19;20078;-66
2023/08/31 00:40:51;;;;;;;7.25;5.13;;;;;;;14.53;81.97;100044.16;7394136;19;20081;-67
2023/08/31 00:43:20;;;;;;;8.15;5.03;;;;;;;14.50;82.01;100042.53;7393464;19;20416;-67
2023/08/31 00:45:51;;;;;;;5.93;5.43;;;;;;;14.49;82.19;100040.84;7393937;19;20007;-66
2023/08/31 00:48:20;;;;;;;5.70;5.20;;;;;;;14.47;82.34;100040.06;7395983;19;20014;-67
2023/08/31 00:50:50;;;;;;;5.65;4.95;;;;;;;14.46;82.67;100043.63;7393762;19;20085;-66
2023/08/31 00:53:19;;;;;;;8.00;4.82;;;;;;;14.45;82.63;100049.81;7393482;19;20011;-66
2023/08/31 00:55:47;;;;;;;5.28;4.78;;;;;;;14.40;83.02;100053.63;7395346;19;20082;-67
2023/08/31 00:58:19;;;;;;;5.32;4.55;;;;;;;14.39;83.21;100052.75;7395388;19;20027;-65
2023/08/31 01:01:01;;;;;;;5.38;4.57;;;;;;;14.31;83.38;100054.91;7395712;19;20066;-66
2023/08/31 01:03:39;;;;;;;4.30;3.90;;;;;;;14.24;84.36;100056.13;7392862;19;20042;-66
2023/08/31 01:06:15;;;;;;;4.32;3.88;;;;;;;14.18;84.60;100058.13;7393769;19;20015;-66
2023/08/31 01:08:50;;;;;;;4.97;4.05;;;;;;;14.20;85.08;100059.84;7392797;19;20011;-66
2023/08/31 01:11:27;;;;;;;4.20;3.22;;;;;;;14.12;84.89;100042.59;7393538;19;20022;-66
2023/08/31 01:14:07;;;;;;;3.53;3.22;;;;;;;14.14;84.98;100051.31;7392846;19;20014;-65
2023/08/31 01:16:37;;;;;;;3.80;3.50;;;;;;;14.14;85.14;100055.72;7399514;19;20014;-65
2023/08/31 01:19:13;;;;;;;4.55;3.38;;;;;;;14.12;85.27;100066.34;7401929;19;20495;-66
2023/08/31 01:21:44;;;;;;;3.50;2.95;;;;;;;14.10;85.35;100057.66;7401915;19;20014;-65
2023/08/31 01:24:17;;;;;;;4.13;3.20;;;;;;;14.08;85.65;100063.91;7400227;19;20481;-65
2023/08/31 01:26:47;;;;;;;3.88;3.20;;;;;;;14.06;85.87;100069.28;7401758;19;20510;-67
2023/08/31 01:29:15;;;;;;;2.67;2.30;;;;;;;14.03;86.12;100072.06;7402835;19;20015;-65
2023/08/31 01:31:47;;;;;;;3.28;2.90;;;;;;;14.01;85.85;100066.00;7401824;19;20086;-65
2023/08/31 01:34:15;;;;;;;4.35;2.65;;;;;;;14.00;85.96;100070.44;7399550;19;20017;-65
2023/08/31 01:36:48;;;;;;;3.42;2.88;;;;;;;14.00;86.42;100074.81;7398523;19;20608;-65
2023/08/31 01:39:25;;;;;;;2.57;2.37;;;;;;;13.97;86.64;100078.47;7399406;19;20021;-65
2023/08/31 01:41:59;;;;;;;4.53;2.72;;;;;;;13.95;86.87;100087.38;7398405;19;20428;-65
2023/08/31 01:44:28;;;;;;;3.17;2.70;;;;;;;13.92;86.77;100076.97;7399332;19;20070;-65
2023/08/31 01:47:06;;;;;;;2.88;2.58;;;;;;;13.88;87.43;100075.41;7398652;19;20011;-66
2023/08/31 01:49:38;;;;;;;3.45;2.65;;;;;;;13.82;87.25;100080.03;7398235;19;20426;-66
2023/08/31 01:52:08;;;;;;;2.50;2.30;;;;;;;13.77;87.50;100076.75;7398186;19;20011;-65
2023/08/31 01:54:40;;;;;;;2.15;2.00;;;;;;;13.71;88.07;100074.41;7398586;19;20014;-65
2023/08/31 01:57:08;;;;;;;2.45;2.25;;;;;;;13.68;88.18;100082.44;7401343;19;20010;-66
2023/08/31 01:59:37;;;;;;;2.60;2.30;;;;;;;13.63;88.29;100085.28;7400959;19;20362;-66
2023/08/31 02:02:06;;;;;;;2.22;2.03;;;;;;;13.59;88.89;100096.06;7400400;19;20011;-65
2023/08/31 02:04:35;;;;;;;3.35;2.50;;;;;;;13.55;89.26;100091.81;7397681;19;20371;-66
2023/08/31 02:07:03;;;;;;;3.00;2.25;;;;;;;13.50;89.36;100092.88;7400290;19;20030;-65
2023/08/31 02:09:31;;;;;;;3.17;2.85;;;;;;;13.48;89.02;100099.16;7400235;19;20553;-66
2023/08/31 02:12:03;;;;;;;2.60;2.35;;;;;;;13.46;89.50;100091.31;7400608;19;20078;-66
2023/08/31 02:14:32;;;;;;;2.38;2.17;;;;;;;13.43;89.49;100083.53;7397579;19;20085;-65
2023/08/31 02:17:01;;;;;;;2.22;2.03;;;;;;;13.43;89.46;100082.69;7401025;19;20156;-66
2023/08/31 02:19:29;;;;;;;3.10;2.20;;;;;;;13.41;89.77;100084.53;7402564;19;20011;-66
2023/08/31 02:21:58;;;;;;;2.33;2.13;;;;;;;13.38;90.16;100093.41;7401711;19;20011;-66
2023/08/31 02:24:26;;;;;;;3.55;2.25;;;;;;;13.34;90.18;100111.13;7396761;19;20036;-66
2023/08/31 02:26:55;;;;;;;3.15;2.05;;;;;;;13.31;90.33;100103.34;7397263;19;20090;-66
2023/08/31 02:29:26;;;;;;;5.13;2.30;;;;;;;13.29;90.11;100099.06;7399664;19;20505;-66
2023/08/31 02:31:54;;;;;;;3.85;2.10;;;;;;;13.27;90.79;100099.16;7397181;19;20070;-65
2023/08/31 02:34:23;;;;;;;5.47;2.38;;;;;;;13.26;90.87;100107.13;7397906;19;20074;-65
2023/08/31 02:36:51;;;;;;;4.25;2.47;;;;;;;13.25;90.56;100110.66;7399298;19;20019;-65
2023/08/31 02:39:20;;;;;;;3.53;2.08;;;;;;;13.23;90.49;100118.66;7397237;19;20018;-65
2023/08/31 02:41:48;;;;;;;3.33;2.50;;;;;;;13.22;90.72;100124.81;7397003;19;20098;-66
2023/08/31 02:44:16;;;;;;;2.72;2.35;;;;;;;13.21;90.69;100123.09;7397689;19;20087;-66
2023/08/31 02:46:47;;;;;;;4.30;2.30;;;;;;;13.19;90.91;100124.94;7399348;19;20028;-66
2023/08/31 02:49:16;;;;;;;3.03;2.28;;;;;;;13.17;90.87;100119.75;7398991;19;20073;-65
2023/08/31 02:51:45;;;;;;;2.83;2.10;;;;;;;13.17;90.66;100124.16;7396574;19;20426;-65
2023/08/31 02:54:13;;;;;;;2.58;2.25;;;;;;;13.17;90.56;100125.00;7397206;19;20049;-66
2023/08/31 02:56:41;;;;;;;2.40;2.20;;;;;;;13.16;90.80;100120.66;7398625;19;20066;-66
2023/08/31 02:59:10;;;;;;;4.53;2.58;;;;;;;13.17;90.69;100119.75;7399063;19;20089;-66
2023/08/31 03:01:38;;;;;;;2.58;2.38;;;;;;;13.18;90.86;100120.59;7398560;19;20094;-65
2023/08/31 03:04:10;;;;;;;2.65;2.45;;;;;;;13.19;91.03;100123.19;7396842;19;20014;-66
2023/08/31 03:06:38;;;;;;;2.55;2.35;;;;;;;13.19;90.90;100114.41;7396136;19;20540;-66
2023/08/31 03:09:07;;;;;;;3.30;2.30;;;;;;;13.20;90.98;100118.75;7398372;19;20070;-65
2023/08/31 03:11:35;;;;;;;2.97;2.72;;;;;;;13.21;91.10;100117.84;7398225;19;20034;-65
2023/08/31 03:14:04;;;;;;;2.85;2.30;;;;;;;13.23;90.91;100117.78;7396360;19;20088;-65
2023/08/31 03:16:32;;;;;;;2.70;2.42;;;;;;;13.23;91.31;100121.28;7397990;19;20086;-65
2023/08/31 03:19:01;;;;;;;3.42;3.10;;;;;;;13.23;91.09;100118.66;7397962;19;20545;-65
2023/08/31 03:21:32;;;;;;;3.10;2.80;;;;;;;13.25;91.20;100110.66;7396175;19;20023;-65
2023/08/31 03:24:00;;;;;;;3.03;2.47;;;;;;;13.25;91.26;100110.66;7396518;19;20427;-65
2023/08/31 03:26:29;;;;;;;2.85;2.60;;;;;;;13.25;91.36;100116.78;7397984;19;20014;-65
2023/08/31 03:28:57;;;;;;;2.92;2.50;;;;;;;13.25;91.29;100115.94;7397911;19;20427;-65
2023/08/31 03:31:26;;;;;;;3.20;2.85;;;;;;;13.25;91.25;100126.47;7397488;19;20492;-65
2023/08/31 03:33:54;;;;;;;3.08;2.78;;;;;;;13.24;91.62;100122.13;7396235;19;20035;-65
2023/08/31 03:36:23;;;;;;;2.88;2.58;;;;;;;13.25;91.57;100126.47;7393293;19;20022;-65
2023/08/31 03:38:54;;;;;;;3.60;2.80;;;;;;;13.24;91.66;100122.97;7395244;19;20383;-65
2023/08/31 03:41:23;;;;;;;4.10;2.60;;;;;;;13.24;91.58;100127.38;7396899;19;20006;-66
2023/08/31 03:43:52;;;;;;;3.28;2.95;;;;;;;13.23;91.96;100130.94;7396176;19;20026;-66
2023/08/31 03:46:20;;;;;;;5.30;2.67;;;;;;;13.23;91.79;100139.72;7397079;19;20034;-65
2023/08/31 03:48:49;;;;;;;3.17;2.80;;;;;;;13.20;91.89;100135.44;7398098;19;20007;-65
2023/08/31 03:51:24;;;;;;;3.58;2.85;;;;;;;13.20;91.79;100142.47;7397087;19;20023;-66
2023/08/31 03:53:56;;;;;;;3.80;2.40;;;;;;;13.19;91.68;100149.53;7395098;19;20014;-66
2023/08/31 03:56:31;;;;;;;4.40;2.72;;;;;;;13.20;91.63;100145.09;7394791;19;20034;-65
2023/08/31 03:59:00;;;;;;;3.33;2.55;;;;;;;13.19;91.88;100153.91;7396807;19;20100;-65
2023/08/31 04:01:28;;;;;;;2.75;2.50;;;;;;;13.18;91.87;100160.97;7396707;19;20014;-65
2023/08/31 04:03:57;;;;;;;3.03;2.60;;;;;;;13.16;92.04;100160.16;7394631;19;20417;-65
2023/08/31 04:06:25;;;;;;;2.30;2.10;;;;;;;13.16;91.83;100156.69;7393919;19;20382;-65
2023/08/31 04:08:56;;;;;;;2.95;2.60;;;;;;;13.15;92.04;100157.59;7394057;19;20020;-65
2023/08/31 04:11:25;;;;;;;2.80;2.50;;;;;;;13.14;92.21;100159.41;7396554;19;20032;-66
2023/08/31 04:14:06;;;;;;;2.60;2.33;;;;;;;13.13;92.16;100164.69;7393700;19;20014;-66
2023/08/31 04:16:35;;;;;;;2.72;2.53;;;;;;;13.12;92.24;100168.28;7393801;19;20516;-66
2023/08/31 04:19:03;;;;;;;5.63;2.70;;;;;;;13.12;92.37;100174.41;7395697;19;20422;-66
2023/08/31 04:21:32;;;;;;;3.42;2.70;;;;;;;13.10;92.33;100175.38;7396539;19;20443;-66
2023/08/31 04:24:03;;;;;;;3.22;2.38;;;;;;;13.09;92.37;100169.28;7394237;19;20010;-66
2023/08/31 04:26:32;;;;;;;2.40;2.20;;;;;;;13.10;92.40;100175.38;7393910;19;20027;-65
2023/08/31 04:29:00;;;;;;;2.92;2.63;;;;;;;13.09;92.43;100174.53;7395387;19;20017;-65
2023/08/31 04:31:29;;;;;;;4.22;2.70;;;;;;;13.10;92.34;100170.97;7395061;19;20514;-66
2023/08/31 04:33:57;;;;;;;2.63;2.42;;;;;;;13.10;92.55;100170.97;7393894;19;20031;-65
2023/08/31 04:36:26;;;;;;;3.20;2.90;;;;;;;13.11;92.69;100167.41;7393333;19;20070;-65
2023/08/31 04:38:54;;;;;;;3.80;3.20;;;;;;;13.11;92.68;100164.78;7394564;19;20473;-66
2023/08/31 04:41:25;;;;;;;4.78;3.47;;;;;;;13.12;92.89;100174.41;7392973;19;20027;-66
2023/08/31 04:43:54;;;;;;;5.57;3.20;;;;;;;13.12;92.88;100169.13;7394401;19;20086;-66
2023/08/31 04:46:22;;;;;;;3.20;2.90;;;;;;;13.15;93.24;100178.69;7394697;19;20011;-65
2023/08/31 04:48:51;;;;;;;6.57;3.35;;;;;;;13.13;93.30;100181.38;7395301;19;20010;-65
2023/08/31 04:51:33;;;;;;;4.40;4.00;;;;;;;13.15;93.52;100190.06;7394633;19;20027;-67
2023/08/31 04:54:02;;;;;;;5.03;3.50;;;;;;;13.15;93.67;100190.06;7392843;19;20024;-66
2023/08/31 04:56:35;;;;;;;6.82;4.25;;;;;;;13.13;93.90;100186.66;7393497;19;20030;-66
2023/08/31 04:59:04;;;;;;;7.43;4.30;;;;;;;13.11;94.31;100193.75;7394522;19;20015;-67
2023/08/31 05:01:32;;;;;;;5.30;4.03;;;;;;;13.06;94.21;100195.72;7391925;19;20118;-66
2023/08/31 05:04:02;;;;;;;5.05;4.20;;;;;;;13.04;94.52;100202.81;7392568;19;20027;-66
2023/08/31 05:06:30;;;;;;;5.55;4.20;;;;;;;13.00;94.59;100203.84;7391158;19;20034;-66
2023/08/31 05:08:59;;;;;;;5.72;4.93;;;;;;;12.99;95.62;100202.13;7393015;19;20122;-66
2023/08/31 05:11:27;;;;;;;5.07;4.47;;;;;;;12.97;95.16;100204.00;7391454;19;20086;-67
2023/08/31 05:13:58;;;;;;;5.47;4.43;;;;;;;12.96;95.40;100202.28;7392011;19;20018;-66
2023/08/31 05:16:27;;;;;;;6.65;4.38;;;;;;;12.95;95.69;100206.66;7391984;19;20014;-66
2023/08/31 05:18:55;;;;;;;6.03;4.38;;;;;;;12.96;95.97;100210.19;7393743;19;20015;-66
2023/08/31 05:21:24;;;;;;;5.95;4.60;;;;;;;12.95;95.83;100205.81;7392571;19;20031;-66
2023/08/31 05:23:52;;;;;;;7.22;5.05;;;;;;;12.97;95.90;100217.16;7391907;19;20015;-66
2023/08/31 05:26:21;;;;;;;8.38;6.00;;;;;;;12.97;96.53;100212.75;7393272;19;20022;-65
2023/08/31 05:28:49;;;;;;;6.07;4.85;;;;;;;12.98;96.03;100216.25;7391595;19;20359;-66
2023/08/31 05:31:20;;;;;;;11.48;6.03;;;;;;;12.99;95.93;100225.84;7392392;19;20022;-66
2023/08/31 05:33:49;;;;;;;8.70;6.22;;;;;;;13.00;96.46;100231.06;7390386;19;20083;-67
2023/08/31 05:36:17;;;;;;;8.70;5.80;;;;;;;13.04;96.25;100231.78;7391613;19;20027;-66
2023/08/31 05:38:45;;;;;;;9.48;6.20;;;;;;;13.04;96.40;100237.91;7392536;19;20378;-66
2023/08/31 05:41:14;;;;;;;8.15;6.35;;;;;;;13.07;96.50;100239.56;7391194;19;20015;-66
2023/08/31 05:43:42;;;;;;;8.85;6.10;;;;;;;13.10;97.03;100239.44;7391136;19;20502;-65
2023/08/31 05:46:11;;;;;;;8.48;5.68;;;;;;;13.11;96.79;100241.16;7391244;19;20018;-65
2023/08/31 05:48:42;;;;;;;13.10;7.10;;;;;;;13.16;96.94;100252.34;7391949;19;20478;-65
2023/08/31 05:51:11;;;;;;;9.18;6.40;;;;;;;13.19;96.83;100252.25;7393305;19;20062;-66
2023/08/31 05:53:40;;;;;;;8.30;6.75;;;;;;;13.23;96.90;100252.09;7391315;19;20074;-66
2023/08/31 05:56:08;;;;;;;8.70;6.10;;;;;;;13.28;97.05;100256.28;7390995;19;20480;-68
2023/08/31 05:58:38;;;;;;;9.23;5.72;;;;;;;13.34;97.33;100255.16;7393888;19;20011;-67
2023/08/31 06:01:07;;;;;;;8.43;6.15;;;;;;;13.36;97.00;100258.59;7400440;19;20346;-69
2023/08/31 06:03:36;;;;;;;9.60;5.72;;;;;;;13.39;97.13;100255.00;7398681;19;20031;-68
2023/08/31 06:06:07;;;;;;;7.70;6.18;;;;;;;13.44;96.54;100259.16;7400119;19;20078;-66
2023/08/31 06:08:35;;;;;;;9.63;5.35;;;;;;;13.50;96.95;100258.06;7399973;19;20014;-66
2023/08/31 06:11:04;;;;;;;10.82;5.60;;;;;;;13.56;96.76;100259.56;7400323;19;20155;-66
2023/08/31 06:13:33;;;;;;;7.50;5.63;;;;;;;13.62;96.19;100262.81;7397381;19;20014;-66
2023/08/31 06:16:01;;;;;;;6.35;5.55;;;;;;;13.67;96.01;100267.88;7396357;19;20494;-65
2023/08/31 06:18:29;;;;;;;8.00;4.57;;;;;;;13.70;95.66;100267.78;7396793;19;20038;-66
2023/08/31 06:20:58;;;;;;;8.98;5.30;;;;;;;13.74;95.55;100274.63;7399942;19;20014;-66
2023/08/31 06:23:29;;;;;;;8.07;5.15;;;;;;;13.78;95.46;100270.06;7396833;19;20014;-66
2023/08/31 06:25:57;;;;;;;7.63;5.22;;;;;;;13.80;95.34;100269.09;7397011;19;20018;-67
2023/08/31 06:28:26;;;;;;;5.40;4.20;;;;;;;13.84;95.04;100275.09;7399554;19;20006;-67
2023/08/31 06:30:54;;;;;;;5.63;4.40;;;;;;;13.83;94.55;100276.84;7399096;19;20015;-65
2023/08/31 06:33:23;;;;;;;8.48;5.45;;;;;;;13.85;94.61;100284.72;7400602;19;20011;-67
2023/08/31 06:35:51;;;;;;;9.10;4.95;;;;;;;13.84;93.89;100280.38;7404149;19;20022;-67
2023/08/31 06:38:20;;;;;;;6.75;5.13;;;;;;;13.82;93.64;100280.41;7400434;19;20032;-67
2023/08/31 06:40:54;;;;;;;6.68;5.18;;;;;;;13.83;93.71;100286.56;7399098;19;20020;-63
2023/08/31 06:43:23;;;;;;;7.20;4.85;;;;;;;13.83;93.92;100287.41;7396960;19;20018;-69
2023/08/31 06:45:51;;;;;;;8.93;5.63;;;;;;;13.85;93.66;100284.72;7399197;19;20014;-65
2023/08/31 06:48:19;;;;;;;6.93;5.35;;;;;;;13.88;93.71;100291.66;7398977;19;20022;-65
2023/08/31 06:50:49;;;;;;;7.97;4.78;;;;;;;13.89;92.99;100295.97;7395680;19;20406;-65
2023/08/31 06:53:18;;;;;;;6.20;4.50;;;;;;;13.88;92.64;100292.50;7395852;19;20431;-64
2023/08/31 06:55:47;;;;;;;6.97;4.60;;;;;;;13.90;92.25;100298.56;7397369;19;20031;-64
2023/08/31 06:58:18;;;;;;;9.18;5.25;;;;;;;13.92;92.58;100296.69;7397977;19;20517;-63
2023/08/31 07:00:46;;;;;;;6.22;4.53;;;;;;;13.98;92.37;100303.50;7398949;19;20035;-63
2023/08/31 07:03:15;;;;;;;6.85;4.78;;;;;;;14.03;92.25;100306.81;7397688;19;20011;-66
2023/08/31 07:05:45;;;;;;;6.57;4.47;;;;;;;14.08;91.52;100301.31;7396225;19;20028;-66
2023/08/31 07:08:14;;;;;;;9.52;4.45;;;;;;;14.12;91.36;100309.03;7397885;19;20473;-67
2023/08/31 07:10:42;;;;;;;5.55;3.75;;;;;;;14.14;90.77;100307.19;7398321;19;20028;-67
2023/08/31 07:13:11;;;;;;;7.80;4.50;;;;;;;14.16;90.44;100307.97;7397675;19;20018;-67
2023/08/31 07:15:42;;;;;;;7.07;3.90;;;;;;;14.16;89.83;100315.03;7395878;19;20077;-67
2023/08/31 07:18:11;;;;;;;5.80;4.00;;;;;;;14.14;89.84;100317.75;7397610;19;20034;-67
2023/08/31 07:20:39;;;;;;;6.80;4.15;;;;;;;14.14;89.42;100316.88;7397529;19;20481;-67
2023/08/31 07:23:08;;;;;;;7.85;4.00;;;;;;;14.12;88.82;100314.31;7395907;19;20031;-67
2023/08/31 07:25:36;;;;;;;6.68;4.50;;;;;;;14.12;87.89;100321.38;7397153;19;20415;-66
2023/08/31 07:28:05;;;;;;;8.68;4.50;;;;;;;14.12;88.22;100319.59;7397758;19;20010;-67
2023/08/31 07:30:34;;;;;;;6.43;3.80;;;;;;;14.13;88.37;100334.50;7397041;19;20366;-66
2023/08/31 07:33:05;;;;;;;5.55;3.88;;;;;;;14.16;88.23;100339.63;7395405;19;20010;-66
2023/08/31 07:35:33;;;;;;;6.90;4.22;;;;;;;14.17;88.08;100325.50;7396690;19;20520;-66
2023/08/31 07:38:02;;;;;;;7.75;4.03;;;;;;;14.21;87.50;100338.59;7396993;19;20086;-67
2023/08/31 07:40:31;;;;;;;6.22;3.80;;;;;;;14.22;87.70;100335.88;7396778;19;20489;-66
2023/08/31 07:42:59;;;;;;;4.95;3.38;;;;;;;14.27;87.26;100333.88;7396518;19;20031;-66
2023/08/31 07:45:28;;;;;;;5.55;3.40;;;;;;;14.34;87.36;100323.91;7396407;19;20415;-67
2023/08/31 07:47:56;;;;;;;4.72;3.45;;;;;;;14.44;86.83;100327.84;7396923;19;20010;-67
2023/08/31 07:50:27;;;;;;;5.88;3.40;;;;;;;14.53;86.46;100333.66;7396304;19;20027;-67
2023/08/31 07:52:55;;;;;;;6.53;3.60;;;;;;;14.62;85.73;100335.88;7395720;19;20461;-66
2023/08/31 07:55:24;;;;;;;8.00;3.08;;;;;;;14.70;85.35;100347.00;7396530;19;20074;-66
2023/08/31 07:57:52;;;;;;;5.80;2.33;;;;;;;14.76;82.45;100341.44;7395769;19;20023;-65
2023/08/31 08:00:21;;;;;;;3.92;1.92;;;;;;;14.85;83.24;100336.66;7396421;19;20018;-67
2023/08/31 08:02:50;;;;;;;8.45;4.45;;;;;;;14.91;81.57;100344.28;7395799;19;20035;-67
2023/08/31 08:05:18;;;;;;;7.47;1.80;;;;;;;14.95;80.33;100337.94;7396875;19;20018;-67
2023/08/31 08:07:50;;;;;;;4.95;1.50;;;;;;;15.00;79.63;100346.53;7396057;19;20032;-66
2023/08/31 08:10:18;;;;;;;8.48;3.45;;;;;;;15.04;79.26;100350.72;7396366;19;20027;-67
2023/08/31 08:12:46;;;;;;;5.05;1.73;;;;;;;15.11;77.71;100351.28;7395422;19;20015;-67
2023/08/31 08:15:15;;;;;;;7.28;1.60;;;;;;;15.20;75.46;100357.94;7394701;19;20026;-66
2023/08/31 08:17:44;;;;;;;6.10;1.50;;;;;;;15.28;76.50;100355.78;7394265;19;20018;-67
2023/08/31 08:20:14;;;;;;;5.07;1.42;;;;;;;15.34;75.59;100344.91;7393848;19;20078;-67
2023/08/31 08:22:43;;;;;;;4.00;1.27;;;;;;;15.37;71.98;100352.69;7392341;19;20018;-67
2023/08/31 08:25:14;;;;;;;2.15;1.10;;;;;;;15.34;70.04;100357.28;7395200;19;20481;-68
2023/08/31 08:27:42;;;;;;;3.22;1.52;;;;;;;15.36;72.57;100366.84;7395690;19;20019;-67
2023/08/31 08:30:11;;;;;;;3.92;1.98;;;;;;;15.34;73.24;100362.56;7394559;19;20487;-67
2023/08/31 08:32:40;;;;;;;2.33;1.40;;;;;;;15.31;72.82;100368.84;7394505;19;20010;-68
2023/08/31 08:35:09;;;;;;;3.92;1.60;;;;;;;15.28;73.39;100348.72;7394408;19;20014;-67
2023/08/31 08:37:37;;;;;;;5.43;1.48;;;;;;;15.30;72.47;100370.66;7393086;19;20031;-67
2023/08/31 08:40:07;;;;;;;2.42;1.33;;;;;;;15.36;73.62;100369.47;7393028;19;20474;-67
2023/08/31 08:42:43;;;;;;;4.45;2.08;;;;;;;15.49;72.80;100377.69;7394323;19;20091;-67
2023/08/31 08:45:17;;;;;;;6.55;1.67;;;;;;;15.58;70.44;100373.72;7393807;19;20033;-67
2023/08/31 08:47:46;;;;;;;1.85;1.10;;;;;;;15.64;70.29;100371.66;7395334;19;20374;-67
2023/08/31 08:50:16;;;;;;;2.88;1.33;;;;;;;15.67;70.14;100378.59;7392824;19;20402;-67
2023/08/31 08:52:44;;;;;;;3.70;1.20;;;;;;;15.71;69.99;100393.38;7394351;19;20017;-67
2023/08/31 08:55:14;;;;;;;6.25;1.55;;;;;;;15.76;69.18;100378.13;7394711;19;20018;-67
2023/08/31 08:57:45;;;;;;;2.30;1.38;;;;;;;15.86;69.42;100380.34;7392989;19;20015;-67
2023/08/31 09:00:15;;;;;;;3.17;1.52;;;;;;;15.92;70.72;100380.03;7394166;19;20474;-67
2023/08/31 09:02:45;;;;;;;3.72;1.63;;;;;;;15.94;70.30;100379.03;7393775;19;20006;-68
2023/08/31 09:05:13;;;;;;;7.50;1.73;;;;;;;15.99;69.79;100370.88;7394521;19;20347;-68
2023/08/31 09:08:06;;;;;;;5.22;1.40;;;;;;;16.06;69.60;100374.94;7394118;19;20018;-68
2023/08/31 09:10:39;;;;;;;3.75;1.52;;;;;;;16.08;64.29;100390.72;7394423;19;20095;-67
2023/08/31 09:13:11;;;;;;;3.70;1.30;;;;;;;16.17;67.85;100381.47;7393394;19;20027;-67
2023/08/31 09:15:40;;;;;;;3.45;1.35;;;;;;;16.22;67.64;100371.50;7390828;19;20482;-67
2023/08/31 09:18:09;;;;;;;5.30;1.48;;;;;;;16.32;68.64;100378.03;7392437;19;20010;-67
2023/08/31 09:20:47;;;;;;;3.58;1.65;;;;;;;16.35;64.26;100369.94;7394463;19;20510;-67
2023/08/31 09:23:16;;;;;;;5.50;1.55;;;;;;;16.40;66.70;100377.63;7395531;19;20017;-70
2023/08/31 09:25:47;;;;;;;2.67;1.33;;;;;;;16.39;66.66;100384.72;7393879;19;20442;-69
2023/08/31 09:28:19;;;;;;;7.35;1.42;;;;;;;16.41;65.35;100388.13;7393721;19;20014;-69
2023/08/31 09:30:49;;;;;;;5.25;1.33;;;;;;;16.43;66.64;100383.63;7393584;19;20018;-67
2023/08/31 09:33:20;;;;;;;2.90;1.00;;;;;;;16.47;66.42;100386.09;7392900;19;20017;-68
2023/08/31 09:35:53;;;;;;;3.63;1.40;;;;;;;16.45;64.24;100378.22;7402326;19;20018;-67
2023/08/31 09:38:22;;;;;;;4.63;1.63;;;;;;;16.47;65.26;100388.75;7397978;19;20010;-68
2023/08/31 09:40:50;;;;;;;4.70;1.30;;;;;;;16.52;65.42;100373.50;7401159;19;20094;-68
2023/08/31 09:43:25;;;;;;;5.53;1.83;;;;;;;16.60;62.48;100371.28;7399356;19;20445;-68
2023/08/31 09:45:55;;;;;;;4.38;1.52;;;;;;;16.76;63.34;100373.97;7398004;19;20018;-69
2023/08/31 09:48:25;;;;;;;5.35;1.88;;;;;;;16.90;62.99;100370.59;7401086;19;20154;-68
2023/08/31 09:50:54;;;;;;;6.63;1.58;;;;;;;17.02;63.73;100362.00;7400798;19;20014;-70
2023/08/31 09:53:24;;;;;;;4.97;1.25;;;;;;;17.08;60.53;100358.16;7399842;19;20031;-69
2023/08/31 09:56:00;;;;;;;3.95;1.40;;;;;;;17.12;59.58;100356.19;7397815;19;20022;-67
2023/08/31 09:58:31;;;;;;;1.90;1.25;;;;;;;17.12;61.22;100354.38;7398072;19;20010;-68
2023/08/31 10:01:00;;;;;;;2.83;1.27;;;;;;;17.15;61.39;100356.88;7400699;19;20015;-68
2023/08/31 10:03:29;;;;;;;5.10;1.40;;;;;;;17.20;60.77;100365.44;7397566;19;20024;-67
2023/08/31 10:05:59;;;;;;;3.15;1.25;;;;;;;17.27;61.32;100371.25;7399233;19;20011;-68
2023/08/31 10:08:31;;;;;;;4.72;1.58;;;;;;;17.28;60.35;100351.75;7400110;19;20014;-68
2023/08/31 10:11:03;;;;;;;3.42;1.23;;;;;;;17.19;59.41;100371.66;7397568;19;20014;-68
2023/08/31 10:13:37;;;;;;;4.28;1.33;;;;;;;17.12;61.18;100374.75;7398731;19;20031;-68
2023/08/31 10:16:15;;;;;;;3.88;1.33;;;;;;;17.06;60.94;100360.03;7397480;19;20007;-69
2023/08/31 10:18:44;;;;;;;3.40;1.45;;;;;;;17.00;61.85;100347.97;7400638;19;20021;-69
2023/08/31 10:21:13;;;;;;;2.80;1.13;;;;;;;17.00;62.38;100349.78;7399777;19;20019;-68
2023/08/31 10:23:47;;;;;;;3.95;1.30;;;;;;;17.01;62.02;100354.13;7399012;19;20022;-71
2023/08/31 10:26:26;;;;;;;2.15;1.33;;;;;;;16.96;61.00;100345.56;7399782;19;20038;-68
2023/08/31 10:28:57;;;;;;;3.35;1.58;;;;;;;16.89;60.67;100367.06;7399988;19;20011;-67
2023/08/31 10:31:26;;;;;;;3.65;1.10;;;;;;;16.80;59.91;100379.97;7399969;19;20028;-68
2023/08/31 10:34:00;;;;;;;2.90;1.02;;;;;;;16.72;60.25;100361.81;7397389;19;20018;-68
2023/08/31 10:36:40;;;;;;;2.80;1.08;;;;;;;16.74;60.35;100352.88;7399183;19;20014;-70
2023/08/31 10:39:15;;;;;;;1.55;0.93;;;;;;;16.85;61.30;100356.75;7399869;19;20031;-69
2023/08/31 10:41:44;;;;;;;3.88;0.70;;;;;;;16.93;55.12;100362.50;7399046;19;20501;-69
2023/08/31 10:44:26;;;;;;;1.38;0.80;;;;;;;17.01;54.54;100349.69;7396545;19;20099;-69
2023/08/31 10:46:56;;;;;;;1.55;0.77;;;;;;;17.13;56.16;100347.31;7399211;19;20035;-68
2023/08/31 10:49:25;;;;;;;1.13;0.80;;;;;;;17.24;55.93;100345.75;7398744;19;20026;-69
2023/08/31 10:51:58;;;;;;;1.20;0.68;;;;;;;17.38;54.08;100346.78;7398386;19;20536;-68
2023/08/31 10:54:28;;;;;;;0.68;0.63;;;;;;;17.50;52.08;100345.22;7396567;19;20410;-67
2023/08/31 10:57:02;;;;;;;1.02;0.80;;;;;;;17.62;54.79;100349.81;7398119;19;20022;-67
2023/08/31 10:59:48;;;;;;;0.98;0.73;;;;;;;17.74;51.31;100349.13;7398172;19;20469;-69
2023/08/31 11:02:33;;;;;;;0.88;0.75;;;;;;;17.80;49.89;100350.56;7399254;19;20010;-67
2023/08/31 11:05:08;;;;;;;2.38;0.80;;;;;;;17.85;49.46;100347.63;7397513;19;20015;-67
2023/08/31 11:07:38;;;;;;;1.10;0.70;;;;;;;17.87;51.05;100340.47;7397963;19;20006;-67
2023/08/31 11:10:17;;;;;;;2.17;0.68;;;;;;;17.94;50.07;100330.34;7397121;19;20015;-67
2023/08/31 11:12:47;;;;;;;1.73;0.95;;;;;;;18.04;51.63;100332.34;7398051;19;20372;-69
2023/08/31 11:15:19;;;;;;;3.35;1.20;;;;;;;18.12;49.99;100331.91;7395163;19;20367;-68
2023/08/31 11:17:49;;;;;;;2.47;1.23;;;;;;;18.19;50.79;100329.75;7396325;19;20010;-68
2023/08/31 11:20:19;;;;;;;3.13;1.05;;;;;;;18.23;49.48;100334.75;7398121;19;20006;-68
2023/08/31 11:22:49;;;;;;;1.10;0.75;;;;;;;18.30;50.71;100331.72;7396814;19;20079;-68
2023/08/31 11:25:20;;;;;;;3.03;1.00;;;;;;;18.34;51.24;100336.78;7394120;19;20347;-68
2023/08/31 11:27:56;;;;;;;1.45;0.80;;;;;;;18.36;49.33;100348.16;7397206;19;20027;-67
2023/08/31 11:30:27;;;;;;;1.52;0.98;;;;;;;18.32;48.99;100354.59;7396402;19;20078;-68
2023/08/31 11:32:57;;;;;;;2.08;0.98;;;;;;;18.34;51.57;100351.88;7396089;19;20011;-68
2023/08/31 11:35:26;;;;;;;2.40;0.98;;;;;;;18.27;50.89;100354.00;7396013;19;20504;-68
2023/08/31 11:37:58;;;;;;;1.17;1.00;;;;;;;18.21;52.91;100354.38;7394874;19;20010;-67